F/V Marial — FHVA — position and weather

sailwx.info

Track history (hours):
 
Tides and Currents Weather Stations Pressure Air Temp Water Temp Dewpoint Dewpoint Depression Visibility Wind Speed Wind Dir Waves Ship Positions

F/V Marial

Last reported at 2018-Feb-16 07:58 UTC. Time now 2018-Feb-19 08:32 UTC.
Position N 46°19' W 002°27'.

Length 20 m; draft 3.4 m.

Type: Fishing. MMSI: 227563000.

Date/timePositionNaut miles runAvg speedWind from/ knotsBaromVisibWave heightAir tempDewpointWater temp
2018-Feb-16 07:58N 46°19' W 002°27'0 0.4
2018-Feb-16 07:30N 46°19' W 002°27'2 2.0
2018-Feb-16 06:44N 46°20' W 002°29'12 0.4
2018-Feb-15 02:26N 46°22' W 002°11'3 7.3
2018-Feb-15 02:00N 46°23' W 002°07'4 7.2
2018-Feb-15 01:31N 46°25' W 002°02'4 7.2
2018-Feb-15 01:00N 46°26' W 001°57'4 7.3
2018-Feb-15 00:31N 46°27' W 001°52'4 7.5
2018-Feb-15 00:00N 46°29' W 001°47'1 2.8
2018-Feb-14 23:31N 46°30' W 001°47'0 0.0
2018-Feb-14 23:00N 46°30' W 001°47'0 0.0
2018-Feb-14 22:31N 46°30' W 001°47'0 0.0
2018-Feb-14 22:00N 46°30' W 001°47'0 0.0
2018-Feb-14 21:30N 46°30' W 001°47'0 0.0
2018-Feb-14 21:01N 46°30' W 001°47'0 0.0
2018-Feb-14 20:29N 46°30' W 001°47'0 0.0
2018-Feb-14 20:01N 46°30' W 001°47'0 0.0
2018-Feb-14 19:31N 46°30' W 001°47'0 0.1
2018-Feb-14 19:00N 46°30' W 001°47'0 0.4
2018-Feb-14 18:30N 46°30' W 001°47'0 0.0
2018-Feb-14 18:01N 46°30' W 001°47'1 3.0
2018-Feb-14 17:31N 46°28' W 001°48'4 8.3
2018-Feb-14 17:00N 46°27' W 001°54'4 8.6
2018-Feb-14 16:31N 46°26' W 001°60'4 8.7
2018-Feb-14 16:01N 46°24' W 002°05'4 8.9
2018-Feb-14 15:31N 46°23' W 002°12'  
2018-Feb-12 01:55N 46°43' W 002°28'  
Track history (hours):
 
Tides and Currents Weather Stations Pressure Air Temp Water Temp Dewpoint Dewpoint Depression Visibility Wind Speed Wind Dir Waves Ship Positions

F/V Marial

Last reported at 2018-Feb-16 07:58 UTC. Time now 2018-Feb-19 08:32 UTC.
Position N 46°19' W 002°27'.

Length 20 m; draft 3.4 m.

Type: Fishing. MMSI: 227563000.

Date/timePositionNaut miles runAvg speedWind from/ knotsBaromVisibWave heightAir tempDewpointWater temp
2018-Feb-16 07:58N 46°19' W 002°27'0 0.4
2018-Feb-16 07:30N 46°19' W 002°27'2 2.0
2018-Feb-16 06:44N 46°20' W 002°29'12 0.4
2018-Feb-15 02:26N 46°22' W 002°11'3 7.3
2018-Feb-15 02:00N 46°23' W 002°07'4 7.2
2018-Feb-15 01:31N 46°25' W 002°02'4 7.2
2018-Feb-15 01:00N 46°26' W 001°57'4 7.3
2018-Feb-15 00:31N 46°27' W 001°52'4 7.5
2018-Feb-15 00:00N 46°29' W 001°47'1 2.8
2018-Feb-14 23:31N 46°30' W 001°47'0 0.0
2018-Feb-14 23:00N 46°30' W 001°47'0 0.0
2018-Feb-14 22:31N 46°30' W 001°47'0 0.0
2018-Feb-14 22:00N 46°30' W 001°47'0 0.0
2018-Feb-14 21:30N 46°30' W 001°47'0 0.0
2018-Feb-14 21:01N 46°30' W 001°47'0 0.0
2018-Feb-14 20:29N 46°30' W 001°47'0 0.0
2018-Feb-14 20:01N 46°30' W 001°47'0 0.0
2018-Feb-14 19:31N 46°30' W 001°47'0 0.1
2018-Feb-14 19:00N 46°30' W 001°47'0 0.4
2018-Feb-14 18:30N 46°30' W 001°47'0 0.0
2018-Feb-14 18:01N 46°30' W 001°47'1 3.0
2018-Feb-14 17:31N 46°28' W 001°48'4 8.3
2018-Feb-14 17:00N 46°27' W 001°54'4 8.6
2018-Feb-14 16:31N 46°26' W 001°60'4 8.7
2018-Feb-14 16:01N 46°24' W 002°05'4 8.9
2018-Feb-14 15:31N 46°23' W 002°12'  
2018-Feb-12 01:55N 46°43' W 002°28'  

Dump ship's entire track history